Time;durP1;ratioP1;P1;durP2;ratioP2;P2;SDS_P1;SDS_P2;PMS_P1;PMS_P2;Temp;Humidity;BMP_temperature;BMP_pressure;BME280_temperature;BME280_humidity;BME280_pressure;Samples;Min_cycle;Max_cycle;Signal;HPM_P1;HPM_P2
2022/07/18 00:01:32;;;;;;;;;8.75;8.75;;;;;26.93;27.13;101813.06;5097445;27;45405;-57
2022/07/18 00:03:58;;;;;;;;;9.00;7.60;;;;;26.88;27.54;101813.72;5097280;27;45397;-54
2022/07/18 00:06:23;;;;;;;;;10.25;7.00;;;;;26.89;27.22;101814.59;5097322;27;45391;-57
2022/07/18 00:08:49;;;;;;;;;8.00;7.00;;;;;26.84;27.94;101813.38;5098015;27;45236;-58
2022/07/18 00:11:14;;;;;;;;;7.25;5.50;;;;;26.80;27.61;101809.44;5097615;27;45589;-55
2022/07/18 00:13:39;;;;;;;;;7.50;5.50;;;;;26.73;27.92;101805.94;5097410;27;45318;-56
2022/07/18 00:16:05;;;;;;;;;5.00;5.00;;;;;26.68;28.08;101797.63;5097600;27;45729;-54
2022/07/18 00:18:30;;;;;;;;;6.75;5.00;;;;;26.62;27.69;101795.78;5097509;27;45258;-55
2022/07/18 00:20:56;;;;;;;;;6.50;5.00;;;;;26.62;28.07;101806.69;5097114;27;45912;-56
2022/07/18 00:23:21;;;;;;;;;5.75;5.00;;;;;26.59;28.17;101797.09;5097236;27;45363;-55
2022/07/18 00:25:47;;;;;;;;;4.25;4.25;;;;;26.43;28.28;101786.75;5097309;27;45368;-55
2022/07/18 00:28:12;;;;;;;;;4.00;4.00;;;;;26.51;28.10;101802.03;5097561;27;45394;-53
2022/07/18 00:30:39;;;;;;;;;6.50;4.00;;;;;26.34;28.15;101782.66;5097188;27;45986;-56
2022/07/18 00:33:04;;;;;;;;;6.60;3.40;;;;;26.40;28.31;101789.91;5097019;27;45438;-58
2022/07/18 00:35:29;;;;;;;;;5.75;5.00;;;;;26.40;28.56;101786.34;5097514;27;45380;-58
2022/07/18 00:37:55;;;;;;;;;5.00;3.50;;;;;26.33;28.44;101786.41;5097408;27;45388;-56
2022/07/18 00:40:20;;;;;;;;;2.75;2.75;;;;;26.33;28.77;101791.88;5098484;27;46419;-58
2022/07/18 00:42:48;;;;;;;;;3.00;3.00;;;;;26.34;28.63;101801.75;5100910;27;45241;-55
2022/07/18 00:45:13;;;;;;;;;4.60;3.80;;;;;26.19;28.31;101783.00;5100879;27;45473;-59
2022/07/18 00:47:39;;;;;;;;;4.25;3.50;;;;;26.26;28.86;101797.41;5101152;27;45359;-56
2022/07/18 00:50:07;;;;;;;;;3.00;3.00;;;;;26.23;28.70;101795.13;5100144;27;45350;-58
2022/07/18 00:52:33;;;;;;;;;4.60;3.00;;;;;26.21;28.46;101796.41;5100397;27;45516;-58
2022/07/18 00:54:58;;;;;;;;;3.80;3.80;;;;;26.17;28.60;101797.91;5100838;27;45219;-57
2022/07/18 00:57:25;;;;;;;;;6.25;4.75;;;;;26.15;28.20;101789.13;5101014;27;45213;-57
2022/07/18 01:02:35;;;;;;;;;5.00;4.60;;;;;26.11;28.68;101781.41;5100664;27;45329;-58
2022/07/18 01:05:00;;;;;;;;;3.75;3.75;;;;;26.11;28.56;101792.31;5100550;27;45235;-53
2022/07/18 01:07:25;;;;;;;;;4.50;4.50;;;;;26.09;28.50;101791.72;5100432;27;45338;-59
2022/07/18 01:09:51;;;;;;;;;4.75;3.75;;;;;26.10;28.83;101792.53;5100592;27;46002;-57
2022/07/18 01:12:16;;;;;;;;;3.00;2.75;;;;;26.08;28.97;101786.47;5100441;27;45427;-57
2022/07/18 01:14:42;;;;;;;;;3.75;3.75;;;;;26.09;29.17;101788.16;5100693;27;45390;-56
2022/07/18 01:17:15;;;;;;;;;5.00;3.00;;;;;26.08;29.02;101772.81;5100523;27;45284;-53
2022/07/18 01:19:41;;;;;;;;;7.20;4.60;;;;;26.02;28.74;101780.03;5100004;27;46544;-58
2022/07/18 01:22:06;;;;;;;;;5.00;4.75;;;;;26.03;29.25;101781.69;5099928;27;45342;-54
2022/07/18 01:24:32;;;;;;;;;3.00;3.00;;;;;26.03;28.96;101789.84;5100239;27;45393;-56
2022/07/18 01:26:57;;;;;;;;;4.00;4.00;;;;;26.03;29.44;101787.13;5100341;27;45352;-55
2022/07/18 01:29:22;;;;;;;;;5.25;5.25;;;;;26.00;29.05;101782.16;5100312;27;46210;-54
2022/07/18 01:31:48;;;;;;;;;4.50;3.50;;;;;25.99;28.92;101782.34;5100007;27;45403;-56
2022/07/18 01:34:13;;;;;;;;;4.00;4.00;;;;;25.98;29.53;101778.81;5099980;27;45292;-55
2022/07/18 01:36:39;;;;;;;;;6.75;3.00;;;;;25.87;29.18;101772.19;5100167;27;45307;-57
2022/07/18 01:39:04;;;;;;;;;4.25;3.75;;;;;25.95;29.81;101792.03;5099578;27;46457;-55
2022/07/18 01:41:29;;;;;;;;;5.75;4.50;;;;;25.96;29.63;101794.56;5099925;27;45395;-55
2022/07/18 01:43:55;;;;;;;;;4.00;4.00;;;;;25.93;29.37;101791.44;5099785;27;45581;-54
2022/07/18 01:46:20;;;;;;;;;3.00;3.00;;;;;25.92;29.59;101784.34;5100170;27;45433;-54
2022/07/18 01:48:46;;;;;;;;;5.00;4.00;;;;;25.96;29.30;101785.56;5098142;27;46203;-54
2022/07/18 01:51:11;;;;;;;;;4.00;3.25;;;;;25.84;29.48;101774.53;5099157;27;45404;-58
2022/07/18 01:53:41;;;;;;;;;6.00;4.00;;;;;25.93;29.14;101778.66;5099550;27;45587;-56
2022/07/18 01:56:07;;;;;;;;;3.60;3.60;;;;;25.90;28.62;101780.97;5099961;27;45325;-54
2022/07/18 01:58:32;;;;;;;;;3.80;2.80;;;;;25.87;28.62;101771.34;5099708;27;46063;-54
2022/07/18 02:00:58;;;;;;;;;4.00;4.00;;;;;25.82;28.74;101772.00;5099335;27;45424;-54
2022/07/18 02:03:23;;;;;;;;;3.75;3.50;;;;;25.81;28.68;101772.25;5099752;27;45638;-54
2022/07/18 02:05:48;;;;;;;;;7.00;4.00;;;;;25.78;28.76;101768.06;5099618;27;45544;-56
2022/07/18 02:08:14;;;;;;;;;3.75;3.75;;;;;25.73;28.55;101767.88;5099175;27;45388;-57
2022/07/18 02:10:39;;;;;;;;;4.00;2.75;;;;;25.71;29.06;101764.56;5099347;27;45315;-54
2022/07/18 02:13:05;;;;;;;;;4.75;3.75;;;;;25.67;28.78;101760.59;5099601;27;45382;-56
2022/07/18 02:15:30;;;;;;;;;4.50;2.75;;;;;25.63;28.73;101762.09;5099815;27;45405;-55
2022/07/18 02:17:56;;;;;;;;;3.50;3.00;;;;;25.57;29.13;101758.34;5098340;27;45423;-54
2022/07/18 02:20:21;;;;;;;;;2.25;1.75;;;;;25.57;29.40;101760.25;5099194;27;45477;-54
2022/07/18 02:22:47;;;;;;;;;2.75;2.25;;;;;25.56;29.40;101756.69;5099251;27;45378;-54
2022/07/18 02:25:12;;;;;;;;;3.00;3.00;;;;;25.52;29.18;101744.56;5099519;27;45553;-54
2022/07/18 02:27:38;;;;;;;;;4.75;4.00;;;;;25.48;29.55;101750.69;5097825;27;46165;-55
2022/07/18 02:30:06;;;;;;;;;3.75;3.75;;;;;25.48;29.27;101756.13;5099334;27;45371;-55
2022/07/18 02:32:31;;;;;;;;;4.80;4.00;;;;;25.45;29.81;101760.16;5099123;27;45312;-58
2022/07/18 02:34:57;;;;;;;;;5.25;3.75;;;;;25.44;29.18;101771.25;5099255;27;45441;-56
2022/07/18 02:37:22;;;;;;;;;3.75;2.50;;;;;25.41;28.88;101769.81;5099069;27;45435;-58
2022/07/18 02:39:47;;;;;;;;;3.75;3.75;;;;;25.37;29.30;101776.75;5099073;27;45457;-55
2022/07/18 02:42:13;;;;;;;;;2.50;2.50;;;;;25.31;29.10;101764.84;5099444;27;45397;-55
2022/07/18 02:44:38;;;;;;;;;8.00;4.00;;;;;25.26;29.56;101763.84;5099202;27;45421;-57
2022/07/18 02:47:04;;;;;;;;;3.00;3.00;;;;;25.21;29.25;101761.78;5099069;27;46027;-56
2022/07/18 02:49:29;;;;;;;;;4.00;4.00;;;;;25.18;29.55;101761.38;5098824;27;45314;-55
2022/07/18 02:52:01;;;;;;;;;4.75;4.75;;;;;25.16;29.92;101758.00;5099061;27;45359;-57
2022/07/18 02:54:27;;;;;;;;;5.00;4.00;;;;;25.12;29.31;101766.63;5098991;27;45450;-54
2022/07/18 02:56:53;;;;;;;;;3.60;3.00;;;;;25.08;29.85;101761.81;5098610;27;46287;-55
2022/07/18 02:59:19;;;;;;;;;4.00;4.00;;;;;25.10;30.45;101768.72;5098920;27;45324;-58
2022/07/18 03:01:44;;;;;;;;;3.40;3.40;;;;;25.10;30.07;101771.44;5098666;27;45352;-57
2022/07/18 03:04:10;;;;;;;;;4.50;3.00;;;;;25.10;30.06;101773.34;5098050;27;45408;-58
2022/07/18 03:06:35;;;;;;;;;3.75;3.75;;;;;25.07;30.17;101782.78;5098524;27;46228;-55
2022/07/18 03:09:01;;;;;;;;;4.50;3.50;;;;;25.04;30.52;101779.66;5096999;27;45868;-56
2022/07/18 03:11:26;;;;;;;;;4.00;3.00;;;;;25.02;30.15;101777.13;5098886;27;45273;-55
2022/07/18 03:13:52;;;;;;;;;3.00;3.00;;;;;24.93;30.38;101762.09;5098647;27;45411;-56
2022/07/18 03:16:17;;;;;;;;;3.50;3.50;;;;;24.98;29.89;101773.16;5098364;27;46987;-58
2022/07/18 03:18:43;;;;;;;;;3.00;3.00;;;;;24.97;30.02;101776.09;5098638;27;45224;-54
2022/07/18 03:21:08;;;;;;;;;4.00;4.00;;;;;24.96;30.18;101782.63;5098616;27;45457;-55
2022/07/18 03:23:33;;;;;;;;;4.50;3.00;;;;;24.94;30.17;101771.91;5098747;27;45403;-55
2022/07/18 03:25:59;;;;;;;;;4.00;4.00;;;;;24.92;30.06;101763.16;5098002;27;45447;-54
2022/07/18 03:28:24;;;;;;;;;4.00;4.00;;;;;24.91;30.22;101763.38;5098265;27;45262;-56
2022/07/18 03:30:49;;;;;;;;;5.75;5.75;;;;;24.84;30.54;101753.34;5097153;27;45459;-59
2022/07/18 03:33:15;;;;;;;;;5.00;4.00;;;;;24.80;30.92;101751.28;5098336;27;45294;-55
2022/07/18 03:35:40;;;;;;;;;4.00;4.00;;;;;24.78;30.81;101756.94;5098246;27;47114;-57
2022/07/18 03:38:05;;;;;;;;;4.50;4.50;;;;;24.74;31.33;101760.31;5098189;27;45296;-58
2022/07/18 03:40:31;;;;;;;;;4.50;3.25;;;;;24.70;31.09;101757.19;5098290;27;45342;-56
2022/07/18 03:42:57;;;;;;;;;5.50;4.25;;;;;24.64;31.51;101739.81;5097438;27;45729;-57
2022/07/18 03:45:22;;;;;;;;;4.75;4.00;;;;;24.61;31.34;101745.72;5098219;27;46138;-56
2022/07/18 03:47:48;;;;;;;;;8.00;4.25;;;;;24.54;31.78;101738.63;5098511;27;45354;-58
2022/07/18 03:50:13;;;;;;;;;3.25;2.00;;;;;24.54;31.37;101746.78;5097338;27;45335;-55
2022/07/18 03:52:38;;;;;;;;;5.50;3.00;;;;;24.47;31.17;101738.63;5098073;27;45356;-57
2022/07/18 03:55:04;;;;;;;;;4.75;4.00;;;;;24.46;32.12;101741.59;5097582;27;46055;-57
2022/07/18 03:57:30;;;;;;;;;3.40;3.40;;;;;24.38;31.39;101734.50;5097809;27;45315;-55
2022/07/18 03:59:55;;;;;;;;;6.25;3.25;;;;;24.36;31.89;101742.00;5097998;27;45308;-56
2022/07/18 04:02:20;;;;;;;;;6.00;5.00;;;;;24.33;32.13;101737.00;5097973;27;45475;-54
2022/07/18 04:04:46;;;;;;;;;6.00;4.00;;;;;24.33;32.40;101753.31;5097516;27;47110;-57
2022/07/18 04:07:11;;;;;;;;;4.75;4.75;;;;;24.32;32.46;101751.63;5097751;27;45425;-55
2022/07/18 04:09:36;;;;;;;;;5.75;3.00;;;;;24.21;32.25;101735.97;5097680;27;45538;-57
2022/07/18 04:12:02;;;;;;;;;4.00;4.00;;;;;24.21;32.43;101744.97;5096771;27;45482;-55
2022/07/18 04:14:27;;;;;;;;;3.50;3.25;;;;;24.20;32.52;101742.47;5097277;27;45904;-57
2022/07/18 04:16:54;;;;;;;;;8.25;4.25;;;;;24.21;32.15;101755.84;5097394;27;45432;-54
2022/07/18 04:19:19;;;;;;;;;4.00;4.00;;;;;24.23;32.29;101758.31;5097729;27;45913;-57
2022/07/18 04:21:45;;;;;;;;;4.75;3.25;;;;;24.26;32.05;101766.06;5097730;27;45336;-55
2022/07/18 04:24:11;;;;;;;;;4.00;2.75;;;;;24.14;32.05;101745.00;5097335;27;45396;-57
2022/07/18 04:26:36;;;;;;;;;4.00;4.00;;;;;24.28;32.67;101766.72;5097276;27;45293;-58
2022/07/18 04:29:02;;;;;;;;;5.50;3.50;;;;;24.35;32.61;101771.06;5097473;27;45473;-53
2022/07/18 04:31:27;;;;;;;;;6.00;4.25;;;;;24.39;32.67;101769.63;5097858;27;45310;-57
2022/07/18 04:33:53;;;;;;;;;5.50;5.50;;;;;24.44;31.99;101765.41;5097072;27;46053;-57
2022/07/18 04:36:18;;;;;;;;;6.00;5.25;;;;;24.32;31.88;101738.03;5097426;27;45352;-54
2022/07/18 04:38:44;;;;;;;;;3.50;3.50;;;;;24.43;31.55;101751.00;5095839;27;45444;-56
2022/07/18 04:41:09;;;;;;;;;6.00;4.00;;;;;24.41;31.59;101738.69;5097489;27;45325;-55
2022/07/18 04:43:35;;;;;;;;;5.00;4.00;;;;;24.38;31.95;101735.31;5097104;27;46920;-57
2022/07/18 04:46:00;;;;;;;;;4.50;4.00;;;;;24.34;32.05;101739.47;5097080;27;45452;-54
2022/07/18 04:48:26;;;;;;;;;8.75;7.00;;;;;24.25;32.09;101705.41;5097308;27;45306;-55
2022/07/18 04:50:51;;;;;;;;;4.75;4.25;;;;;24.37;32.40;101716.47;5097429;27;45237;-55
2022/07/18 04:53:17;;;;;;;;;6.25;3.50;;;;;24.35;32.17;101710.41;5097062;27;46093;-57
2022/07/18 04:55:42;;;;;;;;;4.75;4.25;;;;;24.35;32.21;101718.56;5097226;27;45395;-58
2022/07/18 04:58:08;;;;;;;;;6.00;4.50;;;;;24.39;32.31;101717.94;5097133;27;45296;-57
2022/07/18 05:00:33;;;;;;;;;7.00;5.00;;;;;24.40;32.38;101718.81;5097375;27;45287;-56
2022/07/18 05:02:59;;;;;;;;;4.25;4.25;;;;;24.41;32.06;101719.63;5096961;27;45221;-55
2022/07/18 05:05:26;;;;;;;;;7.50;5.00;;;;;24.38;31.69;101707.28;5096788;27;45210;-56
2022/07/18 05:07:52;;;;;;;;;5.40;4.00;;;;;24.38;32.03;101712.72;5096864;27;45370;-56
2022/07/18 05:10:20;;;;;;;;;2.75;2.75;;;;;24.35;32.04;101700.34;5096996;27;45424;-57
2022/07/18 05:12:47;;;;;;;;;4.25;4.25;;;;;24.28;31.59;101679.69;5096425;27;47225;-56
2022/07/18 05:15:14;;;;;;;;;4.40;4.00;;;;;24.42;32.03;101700.38;5096715;27;45361;-54
2022/07/18 05:17:41;;;;;;;;;6.20;4.60;;;;;24.42;32.30;101708.53;5096838;27;45392;-56
2022/07/18 05:20:09;;;;;;;;;6.50;5.00;;;;;24.43;32.24;101702.03;5097062;27;45408;-56
2022/07/18 05:22:36;;;;;;;;;4.50;4.50;;;;;24.44;31.92;101690.13;5096597;27;45508;-56
2022/07/18 05:25:03;;;;;;;;;6.00;3.80;;;;;24.49;32.03;101687.59;5096401;27;45370;-56
2022/07/18 05:27:29;;;;;;;;;6.00;4.60;;;;;24.36;32.60;101669.41;5099797;27;45373;-55
2022/07/18 05:29:55;;;;;;;;;7.75;5.25;;;;;24.48;32.83;101674.19;5100198;27;45340;-57
2022/07/18 05:32:20;;;;;;;;;9.50;6.50;;;;;24.44;33.51;101668.38;5098708;27;47098;-56
2022/07/18 05:34:45;;;;;;;;;5.25;5.00;;;;;24.47;33.12;101667.09;5099733;27;45323;-55
2022/07/18 05:37:11;;;;;;;;;6.00;5.00;;;;;24.45;33.45;101672.75;5100147;27;45438;-55
2022/07/18 05:39:36;;;;;;;;;8.50;6.75;;;;;24.46;33.07;101693.44;5100118;27;45275;-56
2022/07/18 05:42:03;;;;;;;;;6.50;5.50;;;;;24.53;33.32;101709.75;5099691;27;46449;-57
2022/07/18 05:44:28;;;;;;;;;6.80;4.60;;;;;24.56;32.86;101721.00;5099869;27;45464;-57
2022/07/18 05:46:54;;;;;;;;;6.75;6.75;;;;;24.66;33.04;101731.47;5100123;27;45407;-55
2022/07/18 05:49:19;;;;;;;;;5.00;4.50;;;;;24.61;33.12;101723.94;5100217;27;45374;-56
2022/07/18 05:51:45;;;;;;;;;7.00;5.75;;;;;24.76;32.88;101726.38;5099778;27;45647;-58
2022/07/18 05:54:10;;;;;;;;;3.25;3.25;;;;;24.84;33.13;101736.19;5099750;27;45386;-56
2022/07/18 05:56:38;;;;;;;;;7.50;6.00;;;;;24.88;33.07;101743.69;5099752;27;45474;-58
2022/07/18 05:59:04;;;;;;;;;8.00;6.00;;;;;24.84;32.90;101717.97;5100058;27;45445;-56
2022/07/18 06:01:29;;;;;;;;;7.00;6.25;;;;;24.98;32.46;101726.88;5099445;27;46182;-57
2022/07/18 06:03:55;;;;;;;;;7.00;5.25;;;;;25.01;32.45;101712.00;5099658;27;45419;-57
2022/07/18 06:06:20;;;;;;;;;1.00;1.00;;;;;25.09;31.96;101717.22;5099885;27;45886;-56
2022/07/18 06:08:46;;;;;;;;;7.50;7.25;;;;;25.17;31.96;101727.03;5099857;27;45233;-57
2022/07/18 06:11:11;;;;;;;;;7.50;4.00;;;;;25.19;31.71;101727.63;5099181;27;45887;-57
2022/07/18 06:13:39;;;;;;;;;6.25;4.25;;;;;25.27;31.47;101728.19;5099456;27;45423;-55
2022/07/18 06:16:06;;;;;;;;;7.60;6.20;;;;;25.31;31.97;101720.44;5099668;27;45490;-57
2022/07/18 06:18:34;;;;;;;;;5.50;5.50;;;;;25.41;31.48;101723.50;5099713;27;45180;-57
2022/07/18 06:21:00;;;;;;;;;3.60;3.60;;;;;25.49;30.95;101725.94;5099198;27;47285;-56
2022/07/18 06:23:25;;;;;;;;;7.00;6.00;;;;;25.52;31.56;101720.03;5099462;27;45440;-55
2022/07/18 06:25:51;;;;;;;;;6.50;5.00;;;;;25.55;31.04;101725.06;5099010;27;45746;-56
2022/07/18 06:28:16;;;;;;;;;3.50;3.50;;;;;25.58;30.96;101705.53;5099503;27;45338;-59
2022/07/18 06:30:41;;;;;;;;;7.00;5.00;;;;;25.74;30.73;101717.75;5098834;27;46232;-58
2022/07/18 06:33:07;;;;;;;;;6.75;5.50;;;;;25.85;30.41;101718.94;5098706;27;45373;-59
2022/07/18 06:35:33;;;;;;;;;5.00;5.00;;;;;25.92;30.72;101722.47;5099211;27;45314;-56
2022/07/18 06:37:59;;;;;;;;;2.00;2.00;;;;;26.05;29.97;101725.03;5097809;27;45524;-54
2022/07/18 06:40:25;;;;;;;;;5.75;4.00;;;;;26.11;29.99;101724.13;5098838;27;45358;-59
2022/07/18 06:42:51;;;;;;;;;7.00;3.75;;;;;26.25;29.60;101721.25;5098736;27;45380;-56
2022/07/18 06:45:17;;;;;;;;;6.00;5.00;;;;;26.33;29.76;101720.94;5098885;27;45383;-55
2022/07/18 06:47:42;;;;;;;;;4.00;3.00;;;;;26.46;29.42;101718.09;5099121;27;45298;-56
2022/07/18 06:50:08;;;;;;;;;3.50;3.50;;;;;26.69;29.46;101717.41;5098521;27;46021;-54
2022/07/18 06:52:33;;;;;;;;;4.50;4.50;;;;;26.95;29.31;101731.75;5098798;27;45703;-55
2022/07/18 06:55:00;;;;;;;;;7.25;4.00;;;;;27.16;28.52;101728.53;5098625;27;45689;-58
2022/07/18 06:57:26;;;;;;;;;7.00;4.00;;;;;27.45;28.79;101720.50;5098796;27;45440;-56
2022/07/18 06:59:53;;;;;;;;;5.00;4.00;;;;;27.74;27.82;101714.16;5098583;27;46268;-56
2022/07/18 07:02:18;;;;;;;;;6.00;5.00;;;;;28.10;27.74;101732.19;5098484;27;45368;-59
2022/07/18 07:04:44;;;;;;;;;4.25;3.75;;;;;28.48;27.40;101738.22;5098589;27;45414;-58
2022/07/18 07:07:09;;;;;;;;;5.50;5.50;;;;;28.92;27.08;101728.44;5098569;27;45441;-58
2022/07/18 07:09:34;;;;;;;;;4.75;3.50;;;;;29.49;27.42;101725.63;5098410;27;46018;-59
2022/07/18 07:12:00;;;;;;;;;7.00;5.25;;;;;29.96;26.17;101727.19;5098077;27;45354;-61
2022/07/18 07:14:25;;;;;;;;;5.75;4.75;;;;;30.52;26.73;101731.53;5098507;27;45596;-60
2022/07/18 07:16:50;;;;;;;;;4.00;4.00;;;;;31.03;24.64;101718.41;5098638;27;45354;-61
2022/07/18 07:19:16;;;;;;;;;5.00;5.00;;;;;31.44;23.77;101716.03;5098142;27;46086;-62
2022/07/18 07:21:41;;;;;;;;;7.25;3.50;;;;;32.02;23.76;101719.75;5098267;27;45445;-61
2022/07/18 07:24:07;;;;;;;;;4.00;4.00;;;;;32.62;23.41;101722.25;5098142;27;45264;-61
2022/07/18 07:26:33;;;;;;;;;3.00;3.00;;;;;33.34;22.55;101721.28;5098349;27;45422;-61
2022/07/18 07:28:58;;;;;;;;;2.50;2.25;;;;;34.35;22.30;101721.41;5097927;27;46510;-62
2022/07/18 07:31:23;;;;;;;;;6.75;5.00;;;;;36.05;19.59;101712.38;5098233;27;45422;-62
2022/07/18 07:33:49;;;;;;;;;7.00;4.25;;;;;37.66;18.67;101706.66;5097920;27;45489;-61
2022/07/18 07:36:14;;;;;;;;;5.00;5.00;;;;;38.91;17.08;101697.09;5098376;27;45162;-58
2022/07/18 07:38:40;;;;;;;;;7.00;5.50;;;;;39.99;16.00;101702.63;5097717;27;46131;-58
2022/07/18 07:41:06;;;;;;;;;6.75;5.00;;;;;40.89;15.07;101691.81;5097897;27;45319;-59
2022/07/18 07:43:32;;;;;;;;;4.20;4.20;;;;;41.50;15.05;101698.13;5098045;27;45307;-62
2022/07/18 07:45:57;;;;;;;;;6.00;5.25;;;;;42.13;14.63;101701.94;5098211;27;45214;-63
2022/07/18 07:48:23;;;;;;;;;4.75;4.75;;;;;42.89;14.53;101694.50;5097142;27;46057;-62
2022/07/18 07:50:50;;;;;;;;;6.00;5.00;;;;;43.62;13.74;101698.69;5096357;27;45439;-55
2022/07/18 07:53:16;;;;;;;;;3.40;3.40;;;;;44.48;13.10;101691.06;5098090;27;45294;-61
2022/07/18 07:55:41;;;;;;;;;4.25;4.25;;;;;44.87;12.75;101691.41;5098118;27;45445;-62
2022/07/18 07:58:07;;;;;;;;;6.00;6.00;;;;;45.26;12.70;101687.72;5097561;27;46303;-61
2022/07/18 08:00:33;;;;;;;;;6.50;6.50;;;;;45.58;11.99;101682.13;5097667;27;45244;-61
2022/07/18 08:03:04;;;;;;;;;5.00;5.00;;;;;46.00;11.12;101685.16;5097255;27;45517;-60
2022/07/18 08:05:35;;;;;;;;;4.80;3.80;;;;;46.53;12.34;101687.56;5097858;27;45397;-59
2022/07/18 08:08:01;;;;;;;;;7.00;5.60;;;;;47.03;11.48;101682.97;5097654;27;46235;-61
2022/07/18 08:10:27;;;;;;;;;5.80;5.40;;;;;47.58;11.22;101686.38;5097459;27;45456;-62
2022/07/18 08:12:53;;;;;;;;;7.00;6.00;;;;;48.12;10.70;101682.38;5097499;27;45406;-63
2022/07/18 08:15:18;;;;;;;;;5.25;5.25;;;;;48.60;10.17;101684.66;5097952;27;45479;-62
2022/07/18 08:17:44;;;;;;;;;7.25;6.00;;;;;48.60;11.27;101691.13;5097464;27;45905;-62
2022/07/18 08:20:11;;;;;;;;;7.75;6.00;;;;;48.52;10.35;101688.59;5097580;27;45352;-59
2022/07/18 08:22:51;;;;;;;;;6.40;5.00;;;;;48.98;9.70;101672.19;5097538;27;45486;-63
2022/07/18 08:25:18;;;;;;;;;4.20;4.20;;;;;49.56;9.66;101671.53;5097647;27;45382;-63
2022/07/18 08:27:44;;;;;;;;;6.60;5.20;;;;;50.05;9.88;101680.75;5097487;27;46089;-63
2022/07/18 08:30:09;;;;;;;;;6.50;5.25;;;;;50.30;9.48;101678.06;5097259;27;45326;-62
2022/07/18 08:32:35;;;;;;;;;7.00;5.75;;;;;50.66;9.23;101681.88;5097599;27;45313;-58
2022/07/18 08:35:00;;;;;;;;;7.00;7.00;;;;;50.90;8.94;101678.28;5097348;27;45328;-63
2022/07/18 08:37:25;;;;;;;;;8.00;5.75;;;;;51.29;9.29;101673.88;5097131;27;46130;-61
2022/07/18 08:39:51;;;;;;;;;8.50;6.00;;;;;51.51;9.26;101674.72;5097294;27;45376;-62
2022/07/18 08:42:22;;;;;;;;;7.75;5.50;;;;;51.78;9.14;101667.38;5097316;27;45418;-61
2022/07/18 08:44:48;;;;;;;;;5.60;5.60;;;;;51.77;8.30;101682.78;5097390;27;45536;-64
2022/07/18 08:47:17;;;;;;;;;5.25;4.25;;;;;51.74;8.98;101679.97;5097172;27;45316;-64
2022/07/18 08:49:43;;;;;;;;;6.60;6.60;;;;;51.52;8.35;101674.28;5097162;27;45311;-62
2022/07/18 08:52:08;;;;;;;;;8.40;6.00;;;;;51.84;8.85;101677.09;5097269;27;45367;-60
2022/07/18 08:54:35;;;;;;;;;9.00;6.75;;;;;52.01;7.79;101677.50;5097302;27;45592;-63
2022/07/18 08:57:01;;;;;;;;;7.00;5.40;;;;;52.40;8.19;101687.91;5096763;27;47059;-62
2022/07/18 08:59:27;;;;;;;;;5.25;5.00;;;;;52.66;7.40;101675.22;5096823;27;45432;-62
2022/07/18 09:01:52;;;;;;;;;5.75;3.75;;;;;53.24;8.04;101690.69;5099322;27;45179;-62
2022/07/18 09:04:37;;;;;;;;;4.00;4.00;;;;;53.44;7.64;101685.19;5100714;27;45378;-61
2022/07/18 09:07:04;;;;;;;;;6.80;5.60;;;;;53.71;7.53;101686.19;5100825;27;46222;-60
2022/07/18 09:09:30;;;;;;;;;7.60;6.40;;;;;53.95;7.06;101689.22;5100471;27;45371;-63
2022/07/18 09:12:02;;;;;;;;;5.00;5.00;;;;;53.89;8.21;101679.50;5100423;27;45364;-61
2022/07/18 09:14:28;;;;;;;;;6.20;6.20;;;;;54.11;7.77;101678.00;5100691;27;45460;-61
2022/07/18 09:17:06;;;;;;;;;6.00;4.50;;;;;54.60;7.14;101677.84;5100047;27;45339;-61
2022/07/18 09:19:31;;;;;;;;;5.40;5.40;;;;;54.68;7.24;101685.03;5100370;27;45456;-64
2022/07/18 09:22:13;;;;;;;;;6.75;6.75;;;;;54.60;7.57;101680.69;5100330;27;45392;-61
2022/07/18 09:24:53;;;;;;;;;6.60;5.40;;;;;54.78;6.82;101673.47;5100561;27;45414;-60
2022/07/18 09:27:25;;;;;;;;;8.80;4.80;;;;;54.80;6.51;101679.56;5098780;27;46066;-64
2022/07/18 09:30:11;;;;;;;;;7.20;6.20;;;;;54.86;7.17;101674.19;5099977;27;45493;-63
2022/07/18 09:32:38;;;;;;;;;6.20;4.60;;;;;54.67;6.48;101670.00;5100091;27;45428;-65
2022/07/18 09:35:09;;;;;;;;;6.40;6.40;;;;;54.60;7.29;101669.28;5100181;27;45594;-63
2022/07/18 09:37:35;;;;;;;;;8.00;5.20;;;;;54.99;7.06;101672.34;5099889;27;46677;-64
2022/07/18 09:40:13;;;;;;;;;6.20;5.80;;;;;55.25;6.99;101675.59;5099690;27;45345;-62
2022/07/18 09:42:39;;;;;;;;;5.20;4.60;;;;;55.40;7.13;101674.09;5100029;27;45335;-64
2022/07/18 09:45:05;;;;;;;;;5.25;5.00;;;;;55.41;7.10;101680.63;5100182;27;45300;-62
2022/07/18 09:47:31;;;;;;;;;6.75;5.00;;;;;55.50;6.52;101683.72;5099681;27;47181;-63
2022/07/18 09:49:56;;;;;;;;;5.75;4.25;;;;;55.43;7.01;101681.81;5099701;27;45212;-62
2022/07/18 09:52:22;;;;;;;;;6.75;6.25;;;;;55.52;6.95;101678.41;5099856;27;45503;-61
2022/07/18 09:54:47;;;;;;;;;5.80;5.80;;;;;55.31;6.00;101682.44;5100008;27;45450;-59
2022/07/18 09:57:33;;;;;;;;;3.50;3.50;;;;;55.34;6.79;101681.56;5099661;27;46270;-61
2022/07/18 09:59:59;;;;;;;;;6.60;4.80;;;;;55.18;6.71;101675.75;5099624;27;45311;-57
2022/07/18 10:02:24;;;;;;;;;4.60;4.60;;;;;55.54;6.16;101673.84;5099678;27;45313;-64
2022/07/18 10:04:50;;;;;;;;;4.00;4.00;;;;;55.68;6.45;101664.25;5099835;27;45410;-57
2022/07/18 10:07:16;;;;;;;;;5.00;5.00;;;;;55.82;6.05;101674.59;5099488;27;46235;-55
2022/07/18 10:09:44;;;;;;;;;5.00;3.50;;;;;55.71;6.89;101671.09;5099706;27;45358;-57
2022/07/18 10:12:10;;;;;;;;;6.00;6.00;;;;;55.77;6.84;101660.81;5099265;27;45335;-56
2022/07/18 10:14:35;;;;;;;;;8.75;6.00;;;;;56.32;6.06;101667.03;5099590;27;45391;-63
2022/07/18 10:17:01;;;;;;;;;7.00;4.75;;;;;56.13;5.69;101665.81;5099467;27;46108;-63
2022/07/18 10:19:27;;;;;;;;;5.00;5.00;;;;;56.02;6.17;101648.91;5099383;27;45431;-62
2022/07/18 10:21:53;;;;;;;;;6.00;5.25;;;;;55.95;6.58;101657.59;5099687;27;45268;-63
2022/07/18 10:24:21;;;;;;;;;6.20;5.00;;;;;56.01;7.17;101655.84;5099634;27;45517;-62
2022/07/18 10:27:13;;;;;;;;;5.20;4.00;;;;;55.98;6.81;101651.03;5099477;27;46386;-61
2022/07/18 10:29:38;;;;;;;;;5.60;5.40;;;;;55.71;6.64;101651.94;5098956;27;45517;-62
2022/07/18 10:32:07;;;;;;;;;4.50;4.00;;;;;55.04;6.35;101648.22;5099297;27;45365;-58
2022/07/18 10:34:35;;;;;;;;;5.20;5.20;;;;;54.84;6.92;101642.47;5099550;27;45616;-62
2022/07/18 10:37:06;;;;;;;;;4.60;4.60;;;;;54.92;7.02;101641.13;5099642;27;45457;-56
2022/07/18 10:39:35;;;;;;;;;6.40;6.40;;;;;54.44;6.40;101645.03;5099243;27;45375;-58
2022/07/18 10:42:01;;;;;;;;;5.20;5.20;;;;;54.24;7.29;101632.72;5099575;27;45466;-60
2022/07/18 10:44:27;;;;;;;;;7.25;5.50;;;;;54.01;7.04;101639.91;5099253;27;45370;-56
2022/07/18 10:47:06;;;;;;;;;7.60;4.20;;;;;54.08;7.28;101628.44;5099205;27;45392;-55
2022/07/18 10:49:49;;;;;;;;;5.20;5.20;;;;;53.53;6.69;101635.13;5099434;27;45485;-59
2022/07/18 10:52:27;;;;;;;;;5.60;5.40;;;;;52.63;7.45;101643.56;5099005;27;45399;-55
2022/07/18 10:55:01;;;;;;;;;4.60;4.60;;;;;51.63;7.45;101595.69;5099128;27;45568;-56
2022/07/18 10:57:27;;;;;;;;;6.20;5.80;;;;;51.61;7.14;101639.88;5098800;27;45449;-57
2022/07/18 11:00:08;;;;;;;;;6.25;6.25;;;;;51.02;7.17;101633.78;5099107;27;45338;-57
2022/07/18 11:02:45;;;;;;;;;5.00;5.00;;;;;50.68;7.86;101636.94;5098985;27;45376;-56
2022/07/18 11:05:22;;;;;;;;;6.00;4.60;;;;;49.80;8.48;101635.31;5099259;27;45402;-57
2022/07/18 11:07:57;;;;;;;;;6.20;5.20;;;;;48.09;8.85;101635.22;5099615;27;46326;-59
2022/07/18 11:10:41;;;;;;;;;4.40;4.40;;;;;46.27;9.87;101629.13;5099546;27;45450;-56
2022/07/18 11:13:31;;;;;;;;;6.60;6.60;;;;;44.92;10.30;101633.00;5098676;27;45323;-56
2022/07/18 11:16:19;;;;;;;;;5.60;5.60;;;;;43.74;11.56;101626.69;5098839;27;45277;-56
2022/07/18 11:18:44;;;;;;;;;5.80;5.80;;;;;42.68;11.91;101632.97;5098367;27;45417;-55
2022/07/18 11:21:21;;;;;;;;;6.25;5.50;;;;;41.73;12.44;101631.66;5098466;27;45441;-56
2022/07/18 11:23:49;;;;;;;;;5.20;4.20;;;;;41.16;12.64;101623.63;5097736;27;45297;-59
2022/07/18 11:26:17;;;;;;;;;4.80;4.80;;;;;40.64;12.85;101612.56;5098682;27;45240;-60
2022/07/18 11:28:43;;;;;;;;;6.00;4.40;;;;;40.36;13.27;101607.28;5098196;27;45346;-54